createdAt,value
2022-09-12T00:01:19.376Z,84.60
2022-09-12T00:03:47.134Z,84.60
2022-09-12T00:06:22.590Z,84.60
2022-09-12T00:08:50.740Z,84.50
2022-09-12T00:11:17.540Z,85.00
2022-09-12T00:13:44.582Z,84.70
2022-09-12T00:16:17.299Z,84.90
2022-09-12T00:18:46.852Z,84.80
2022-09-12T00:21:15.432Z,84.80
2022-09-12T00:23:42.508Z,84.80
2022-09-12T00:26:10.258Z,84.90
2022-09-12T00:28:39.242Z,84.90
2022-09-12T00:31:08.841Z,85.00
2022-09-12T00:33:36.689Z,85.00
2022-09-12T00:36:15.583Z,84.90
2022-09-12T00:38:44.203Z,84.80
2022-09-12T00:41:15.638Z,84.80
2022-09-12T00:43:46.028Z,84.90
2022-09-12T00:46:35.680Z,85.00
2022-09-12T00:49:29.175Z,85.00
2022-09-12T00:52:03.555Z,85.10
2022-09-12T00:54:45.308Z,85.20
2022-09-12T00:57:15.883Z,85.70
2022-09-12T00:59:55.199Z,85.20
2022-09-12T01:02:22.971Z,85.20
2022-09-12T01:04:50.384Z,85.20
2022-09-12T01:07:17.696Z,85.10
2022-09-12T01:09:45.904Z,85.10
2022-09-12T01:12:14.968Z,85.10
2022-09-12T01:14:42.621Z,85.10
2022-09-12T01:17:18.625Z,85.20
2022-09-12T01:20:04.480Z,85.20
2022-09-12T01:22:52.072Z,85.70
2022-09-12T01:25:48.761Z,85.80
2022-09-12T01:28:38.173Z,85.80
2022-09-12T01:31:29.870Z,85.80
2022-09-12T01:34:18.055Z,85.70
2022-09-12T01:37:09.212Z,86.60
2022-09-12T01:39:39.242Z,85.70
2022-09-12T01:42:24.494Z,85.60
2022-09-12T01:45:11.532Z,85.60
2022-09-12T01:47:53.785Z,85.50
2022-09-12T01:50:30.190Z,85.40
2022-09-12T01:53:42.221Z,85.40
2022-09-12T01:56:15.522Z,85.90
2022-09-12T01:58:54.826Z,85.50
2022-09-12T02:01:29.551Z,85.40
2022-09-12T02:04:18.274Z,85.40
2022-09-12T02:06:53.238Z,85.40
2022-09-12T02:09:27.982Z,85.50
2022-09-12T02:11:58.713Z,85.50
2022-09-12T02:14:33.938Z,85.50
2022-09-12T02:17:04.009Z,85.60
2022-09-12T02:19:36.402Z,85.60
2022-09-12T02:22:06.476Z,85.70
2022-09-12T02:24:40.308Z,85.70
2022-09-12T02:27:18.357Z,85.70
2022-09-12T02:29:46.068Z,85.70
2022-09-12T02:32:30.032Z,85.60
2022-09-12T02:35:07.301Z,85.60
2022-09-12T02:37:52.453Z,85.70
2022-09-12T02:40:19.596Z,85.60
2022-09-12T02:42:46.716Z,85.80
2022-09-12T02:45:13.986Z,85.80
2022-09-12T02:47:44.377Z,86.00
2022-09-12T02:50:11.944Z,86.00
2022-09-12T02:52:39.816Z,86.00
2022-09-12T02:55:06.996Z,85.90
2022-09-12T02:57:34.028Z,85.80
2022-09-12T03:00:02.221Z,86.10
2022-09-12T03:02:55.077Z,86.00
2022-09-12T03:05:51.472Z,85.90
2022-09-12T03:08:24.189Z,85.90
2022-09-12T03:11:19.697Z,85.90
2022-09-12T03:14:05.943Z,86.00
2022-09-12T03:16:46.972Z,86.00
2022-09-12T03:19:23.779Z,86.00
2022-09-12T03:21:57.695Z,86.10
2022-09-12T03:24:38.441Z,86.20
2022-09-12T03:27:24.588Z,86.10
2022-09-12T03:29:52.935Z,86.20
2022-09-12T03:32:19.773Z,86.40
2022-09-12T03:34:46.739Z,86.40
2022-09-12T03:37:13.573Z,86.30
2022-09-12T03:39:41.005Z,86.40
2022-09-12T03:42:08.053Z,86.40
2022-09-12T03:44:35.110Z,86.40
2022-09-12T03:47:02.165Z,86.40
2022-09-12T03:49:29.062Z,86.40
2022-09-12T03:51:55.898Z,86.40
2022-09-12T03:54:23.233Z,86.40
2022-09-12T03:56:50.234Z,86.40
2022-09-12T03:59:17.231Z,86.40
2022-09-12T04:01:44.195Z,86.50
2022-09-12T04:04:11.319Z,86.50
2022-09-12T04:06:38.148Z,87.40
2022-09-12T04:09:05.538Z,86.60
2022-09-12T04:11:32.396Z,86.60
2022-09-12T04:13:59.485Z,86.50
2022-09-12T04:16:26.473Z,86.50
2022-09-12T04:18:54.573Z,86.60
2022-09-12T04:21:22.397Z,86.70
2022-09-12T04:23:50.094Z,86.80
2022-09-12T04:26:18.901Z,86.80
2022-09-12T04:28:46.635Z,86.90
2022-09-12T04:31:18.067Z,87.00
2022-09-12T04:33:46.768Z,86.90
2022-09-12T04:36:16.854Z,86.90
2022-09-12T04:38:45.516Z,87.00
2022-09-12T04:41:23.136Z,86.90
2022-09-12T04:44:02.381Z,86.90
2022-09-12T04:46:31.858Z,87.00
2022-09-12T04:48:59.604Z,87.00
2022-09-12T04:51:28.813Z,87.10
2022-09-12T04:54:01.887Z,86.90
2022-09-12T04:56:29.869Z,87.20
2022-09-12T04:58:58.640Z,87.10
2022-09-12T05:01:27.000Z,87.00
2022-09-12T05:03:54.999Z,87.10
2022-09-12T05:06:25.096Z,87.10
2022-09-12T05:08:53.227Z,87.00
2022-09-12T05:11:36.721Z,87.00
2022-09-12T05:14:04.412Z,87.10
2022-09-12T05:16:35.688Z,87.20
2022-09-12T05:19:03.212Z,87.20
2022-09-12T05:21:30.249Z,87.30
2022-09-12T05:24:01.188Z,87.30
2022-09-12T05:26:28.631Z,87.40
2022-09-12T05:28:58.340Z,87.40
2022-09-12T05:31:27.492Z,87.40
2022-09-12T05:33:56.407Z,87.40
2022-09-12T05:36:29.506Z,87.40
2022-09-12T05:38:57.462Z,87.40
2022-09-12T05:41:37.700Z,87.50
2022-09-12T05:44:06.976Z,87.50
2022-09-12T05:46:45.693Z,87.40
2022-09-12T05:49:14.689Z,87.50
2022-09-12T05:51:45.289Z,87.50
2022-09-12T05:54:15.012Z,87.60
2022-09-12T05:56:47.728Z,87.50
2022-09-12T05:59:17.876Z,87.60
2022-09-12T06:01:45.441Z,87.40
2022-09-12T06:04:15.073Z,87.40
2022-09-12T06:06:47.680Z,87.50
2022-09-12T06:09:16.727Z,87.60
2022-09-12T06:11:47.956Z,87.60
2022-09-12T06:14:18.003Z,87.60
2022-09-12T06:16:45.380Z,87.80
2022-09-12T06:19:20.393Z,87.90
2022-09-12T06:21:49.672Z,88.00
2022-09-12T06:24:18.529Z,88.20
2022-09-12T06:26:47.669Z,88.10
2022-09-12T06:29:15.623Z,88.20
2022-09-12T06:31:44.330Z,88.20
2022-09-12T06:34:14.418Z,88.20
2022-09-12T06:36:44.844Z,88.30
2022-09-12T06:39:14.917Z,88.40
2022-09-12T06:41:44.251Z,89.50
2022-09-12T06:44:16.950Z,88.80
2022-09-12T06:46:45.544Z,88.80
2022-09-12T06:49:12.773Z,88.80
2022-09-12T06:51:42.034Z,88.90
2022-09-12T06:54:12.162Z,89.40
2022-09-12T06:56:39.715Z,89.50
2022-09-12T06:59:06.873Z,89.50
2022-09-12T07:01:34.534Z,89.60
2022-09-12T07:04:04.004Z,89.50
2022-09-12T07:06:36.800Z,89.40
2022-09-12T07:09:06.398Z,89.30
2022-09-12T07:11:40.959Z,89.30
2022-09-12T07:14:10.795Z,89.50
2022-09-12T07:16:38.080Z,89.60
2022-09-12T07:19:06.956Z,89.70
2022-09-12T07:21:38.966Z,89.80
2022-09-12T07:24:06.902Z,90.00
2022-09-12T07:26:34.051Z,90.00
2022-09-12T07:29:25.107Z,90.10
2022-09-12T07:31:48.152Z,90.00
2022-09-12T07:34:18.119Z,90.10
2022-09-12T07:36:45.367Z,90.20
2022-09-12T07:39:12.353Z,90.10
2022-09-12T07:41:42.223Z,90.00
2022-09-12T07:44:09.348Z,90.00
2022-09-12T07:46:36.377Z,90.00
2022-09-12T07:49:08.232Z,90.00
2022-09-12T07:51:35.869Z,90.10
2022-09-12T07:54:07.040Z,90.00
2022-09-12T07:56:38.693Z,89.90
2022-09-12T07:59:06.691Z,89.70
2022-09-12T08:01:33.727Z,89.80
2022-09-12T08:04:01.517Z,89.70
2022-09-12T08:06:32.138Z,89.70
2022-09-12T08:08:59.785Z,89.60
2022-09-12T08:11:28.942Z,89.70
2022-09-12T08:13:58.117Z,89.70
2022-09-12T08:16:28.580Z,89.70
2022-09-12T08:18:55.823Z,89.70
2022-09-12T08:21:28.579Z,89.70
2022-09-12T08:24:06.325Z,89.70
2022-09-12T08:26:34.308Z,89.90
2022-09-12T08:29:04.903Z,90.00
2022-09-12T08:31:36.359Z,90.10
2022-09-12T08:34:07.003Z,90.00
2022-09-12T08:36:35.823Z,90.00
2022-09-12T08:39:07.114Z,90.00
2022-09-12T08:41:49.792Z,90.00
2022-09-12T08:44:22.163Z,89.80
2022-09-12T08:47:46.095Z,90.00
2022-09-12T08:50:18.177Z,90.00
2022-09-12T08:53:03.372Z,90.00
2022-09-12T08:55:42.350Z,90.10
2022-09-12T08:58:19.620Z,90.20
2022-09-12T09:01:05.421Z,90.20
2022-09-12T09:03:47.420Z,90.30
2022-09-12T09:06:29.503Z,90.40
2022-09-12T09:09:11.883Z,90.30
2022-09-12T09:11:54.650Z,90.20
2022-09-12T09:14:49.445Z,90.10
2022-09-12T09:17:22.432Z,90.10
2022-09-12T09:20:17.539Z,90.10
2022-09-12T09:22:56.949Z,90.00
2022-09-12T09:25:40.976Z,90.10
2022-09-12T09:28:19.318Z,90.10
2022-09-12T09:30:47.023Z,90.10
2022-09-12T09:33:24.882Z,90.10
2022-09-12T09:35:58.203Z,90.10
2022-09-12T09:38:51.053Z,90.30
2022-09-12T09:41:33.051Z,90.20
2022-09-12T09:44:01.021Z,90.20
2022-09-12T09:46:28.376Z,90.00
2022-09-12T09:48:56.299Z,90.00
2022-09-12T09:51:36.004Z,89.80
2022-09-12T09:54:23.202Z,89.30
2022-09-12T09:56:51.162Z,89.00
2022-09-12T09:59:36.156Z,89.00
2022-09-12T10:02:13.704Z,88.40
2022-09-12T10:04:52.734Z,88.40
2022-09-12T10:07:21.735Z,88.30
2022-09-12T10:10:19.809Z,88.10
2022-09-12T10:12:46.866Z,87.70
2022-09-12T10:15:29.520Z,87.90
2022-09-12T10:17:56.551Z,87.70
2022-09-12T10:20:34.657Z,87.80
2022-09-12T10:23:18.876Z,88.40
2022-09-12T10:25:48.898Z,87.50
2022-09-12T10:28:27.258Z,87.10
2022-09-12T10:30:56.005Z,86.70
2022-09-12T10:33:25.480Z,86.60
2022-09-12T10:35:55.095Z,86.50
2022-09-12T10:38:28.068Z,86.40
2022-09-12T10:41:06.557Z,86.00
2022-09-12T10:43:33.778Z,85.90
2022-09-12T10:46:20.900Z,85.80
2022-09-12T10:49:11.851Z,85.70
2022-09-12T10:51:38.797Z,85.80
2022-09-12T10:54:10.112Z,85.70
2022-09-12T10:56:44.487Z,85.40
2022-09-12T10:59:24.205Z,85.00
2022-09-12T11:01:57.564Z,84.70
2022-09-12T11:04:28.955Z,84.60
2022-09-12T11:07:03.618Z,84.40
2022-09-12T11:10:04.082Z,84.10
2022-09-12T11:12:53.630Z,83.90
2022-09-12T11:15:31.725Z,84.10
2022-09-12T11:18:27.432Z,83.90
2022-09-12T11:21:10.135Z,83.50
2022-09-12T11:23:56.123Z,83.50
2022-09-12T11:26:32.006Z,83.20
2022-09-12T11:29:12.483Z,83.30
2022-09-12T11:31:48.667Z,83.00
2022-09-12T11:34:25.477Z,82.90
2022-09-12T11:37:19.947Z,82.70
2022-09-12T11:39:53.414Z,82.20
2022-09-12T11:42:30.019Z,82.20
2022-09-12T11:45:06.123Z,81.90
2022-09-12T11:47:35.103Z,81.60
2022-09-12T11:50:12.713Z,81.70
2022-09-12T11:52:40.667Z,81.30
2022-09-12T11:55:31.710Z,81.10
2022-09-12T11:57:59.202Z,80.20
2022-09-12T12:00:41.256Z,80.10
2022-09-12T12:03:23.832Z,79.60
2022-09-12T12:06:16.959Z,78.90
2022-09-12T12:08:46.235Z,78.60
2022-09-12T12:11:16.615Z,78.70
2022-09-12T12:14:17.657Z,78.60
2022-09-12T12:16:45.205Z,78.20
2022-09-12T12:19:15.008Z,78.70
2022-09-12T12:21:49.103Z,78.40
2022-09-12T12:24:28.936Z,78.20
2022-09-12T12:26:58.914Z,78.20
2022-09-12T12:29:35.113Z,78.10
2022-09-12T12:32:02.085Z,77.50
2022-09-12T12:34:32.207Z,77.50
2022-09-12T12:37:31.139Z,77.20
2022-09-12T12:40:20.626Z,76.90
2022-09-12T12:42:48.154Z,76.80
2022-09-12T12:45:22.508Z,76.80
2022-09-12T12:48:28.573Z,76.60
2022-09-12T12:51:42.821Z,76.30
2022-09-12T12:54:32.365Z,76.20
2022-09-12T12:57:13.229Z,75.90
2022-09-12T13:00:30.562Z,76.40
2022-09-12T13:03:06.801Z,77.30
2022-09-12T13:05:52.466Z,76.20
2022-09-12T13:08:19.859Z,75.70
2022-09-12T13:11:29.550Z,75.50
2022-09-12T13:14:02.722Z,74.90
2022-09-12T13:16:36.783Z,75.30
2022-09-12T13:19:20.878Z,74.90
2022-09-12T13:22:02.240Z,74.60
2022-09-12T13:24:29.206Z,74.40
2022-09-12T13:26:57.801Z,74.40
2022-09-12T13:29:26.963Z,74.20
2022-09-12T13:32:03.440Z,74.10
2022-09-12T13:34:37.137Z,73.70
2022-09-12T13:37:24.991Z,73.50
2022-09-12T13:40:22.060Z,72.90
2022-09-12T13:43:14.372Z,72.90
2022-09-12T13:45:47.195Z,71.50
2022-09-12T13:48:20.483Z,70.80
2022-09-12T13:51:00.023Z,70.40
2022-09-12T13:53:32.119Z,70.00
2022-09-12T13:56:00.140Z,70.00
2022-09-12T13:58:31.143Z,70.00
2022-09-12T14:01:16.205Z,69.90
2022-09-12T14:04:13.704Z,69.40
2022-09-12T14:06:49.550Z,69.70
2022-09-12T14:09:25.355Z,69.80
2022-09-12T14:11:56.241Z,69.50
2022-09-12T14:14:31.454Z,69.50
2022-09-12T14:16:59.155Z,69.60
2022-09-12T14:19:30.009Z,69.40
2022-09-12T14:21:58.369Z,69.30
2022-09-12T14:24:25.818Z,69.10
2022-09-12T14:26:56.646Z,68.80
2022-09-12T14:29:25.173Z,68.50
2022-09-12T14:32:04.715Z,68.40
2022-09-12T14:34:31.976Z,68.10
2022-09-12T14:36:58.857Z,68.20
2022-09-12T14:39:33.763Z,68.30
2022-09-12T14:42:14.268Z,68.40
2022-09-12T14:44:52.952Z,68.10
2022-09-12T14:47:26.331Z,68.10
2022-09-12T14:49:53.941Z,67.80
2022-09-12T14:52:37.182Z,67.60
2022-09-12T14:55:24.017Z,67.40
2022-09-12T14:58:06.646Z,67.40
2022-09-12T15:00:36.668Z,67.70
2022-09-12T15:03:25.614Z,68.00
2022-09-12T15:05:53.027Z,67.30
2022-09-12T15:08:23.434Z,67.40
2022-09-12T15:10:52.088Z,67.10
2022-09-12T15:13:22.213Z,66.80
2022-09-12T15:15:54.705Z,66.50
2022-09-12T15:18:23.930Z,66.10
2022-09-12T15:20:57.363Z,66.20
2022-09-12T15:23:47.162Z,66.00
2022-09-12T15:26:17.055Z,65.70
2022-09-12T15:28:44.470Z,65.80
2022-09-12T15:31:20.612Z,65.50
2022-09-12T15:33:47.684Z,65.50
2022-09-12T15:36:17.698Z,65.80
2022-09-12T15:38:45.825Z,65.50
2022-09-12T15:41:32.911Z,65.20
2022-09-12T15:43:59.725Z,64.70
2022-09-12T15:46:26.668Z,64.90
2022-09-12T15:48:53.422Z,64.70
2022-09-12T15:51:21.809Z,64.70
2022-09-12T15:53:50.048Z,64.50
2022-09-12T15:56:21.657Z,64.30
2022-09-12T15:58:58.660Z,64.10
2022-09-12T16:01:27.651Z,64.00
2022-09-12T16:03:54.659Z,64.00
2022-09-12T16:06:22.250Z,63.70
2022-09-12T16:08:49.582Z,63.70
2022-09-12T16:11:28.711Z,63.60
2022-09-12T16:13:56.867Z,63.60
2022-09-12T16:16:23.965Z,63.90
2022-09-12T16:18:50.776Z,63.70
2022-09-12T16:21:17.742Z,63.80
2022-09-12T16:23:45.836Z,63.90
2022-09-12T16:26:12.777Z,63.80
2022-09-12T16:28:43.058Z,64.50
2022-09-12T16:31:13.539Z,63.40
2022-09-12T16:33:41.046Z,63.20
2022-09-12T16:36:14.209Z,63.20
2022-09-12T16:38:52.118Z,62.90
2022-09-12T16:41:20.945Z,62.70
2022-09-12T16:43:48.478Z,62.70
2022-09-12T16:46:20.643Z,62.60
2022-09-12T16:48:52.433Z,62.40
2022-09-12T16:51:22.392Z,62.30
2022-09-12T16:53:52.756Z,62.70
2022-09-12T16:56:19.591Z,62.20
2022-09-12T16:58:46.541Z,62.20
2022-09-12T17:01:16.546Z,62.10
2022-09-12T17:03:43.780Z,62.10
2022-09-12T17:06:11.936Z,62.00
2022-09-12T17:08:41.688Z,62.10
2022-09-12T17:11:19.273Z,61.90
2022-09-12T17:14:10.078Z,61.60
2022-09-12T17:16:41.712Z,61.20
2022-09-12T17:19:11.980Z,61.10
2022-09-12T17:21:38.986Z,60.90
2022-09-12T17:24:05.874Z,60.50
2022-09-12T17:26:33.175Z,60.40
2022-09-12T17:29:01.350Z,60.60
2022-09-12T17:31:31.218Z,60.70
2022-09-12T17:33:59.438Z,61.00
2022-09-12T17:36:32.095Z,61.20
2022-09-12T17:38:59.893Z,61.50
2022-09-12T17:41:31.980Z,61.80
2022-09-12T17:44:00.560Z,62.00
2022-09-12T17:46:35.646Z,62.30
2022-09-12T17:49:05.188Z,62.50
2022-09-12T17:51:32.144Z,62.90
2022-09-12T17:54:08.560Z,63.10
2022-09-12T17:56:37.213Z,63.40
2022-09-12T17:59:05.464Z,63.70
2022-09-12T18:01:54.270Z,63.90
2022-09-12T18:04:21.361Z,64.00
2022-09-12T18:06:48.906Z,64.20
2022-09-12T18:09:18.676Z,64.40
2022-09-12T18:11:48.151Z,64.60
2022-09-12T18:14:15.770Z,64.80
2022-09-12T18:16:43.463Z,65.00
2022-09-12T18:19:11.229Z,65.10
2022-09-12T18:21:38.425Z,65.30
2022-09-12T18:24:06.129Z,65.40
2022-09-12T18:26:33.175Z,65.60
2022-09-12T18:28:59.976Z,65.70
2022-09-12T18:31:30.943Z,65.90
2022-09-12T18:34:02.554Z,66.00
2022-09-12T18:36:29.990Z,67.00
2022-09-12T18:38:57.387Z,67.20
2022-09-12T18:41:24.953Z,66.20
2022-09-12T18:43:59.726Z,66.50
2022-09-12T18:46:28.084Z,66.50
2022-09-12T18:48:57.582Z,67.50
2022-09-12T18:51:27.453Z,66.60
2022-09-12T18:53:56.343Z,66.70
2022-09-12T18:56:32.815Z,66.80
2022-09-12T18:59:00.973Z,66.90
2022-09-12T19:01:30.806Z,66.90
2022-09-12T19:03:58.987Z,67.10
2022-09-12T19:06:28.739Z,67.20
2022-09-12T19:08:56.947Z,67.30
2022-09-12T19:11:25.484Z,67.50
2022-09-12T19:13:53.449Z,67.50
2022-09-12T19:16:23.121Z,67.60
2022-09-12T19:18:52.264Z,67.60
2022-09-12T19:21:25.228Z,67.70
2022-09-12T19:23:53.483Z,67.90
2022-09-12T19:26:22.190Z,67.90
2022-09-12T19:28:49.342Z,67.90
2022-09-12T19:31:21.814Z,68.00
2022-09-12T19:33:49.805Z,68.00
2022-09-12T19:39:08.296Z,68.20
2022-09-12T19:41:35.875Z,68.30
2022-09-12T19:44:04.484Z,68.40
2022-09-12T19:46:32.543Z,69.40
2022-09-12T19:48:59.696Z,68.60
2022-09-12T19:51:26.563Z,68.70
2022-09-12T19:53:53.930Z,68.60
2022-09-12T19:56:21.159Z,68.60
2022-09-12T19:58:53.490Z,68.60
2022-09-12T20:01:32.265Z,68.60
2022-09-12T20:03:59.818Z,68.90
2022-09-12T20:06:29.409Z,68.80
2022-09-12T20:08:56.786Z,68.70
2022-09-12T20:11:24.436Z,68.70
2022-09-12T20:13:53.508Z,68.80
2022-09-12T20:16:26.436Z,68.80
2022-09-12T20:18:56.258Z,68.80
2022-09-12T20:21:28.421Z,68.80
2022-09-12T20:23:55.554Z,69.60
2022-09-12T20:26:24.944Z,68.80
2022-09-12T20:28:52.571Z,68.80
2022-09-12T20:31:19.737Z,69.00
2022-09-12T20:33:51.613Z,69.10
2022-09-12T20:36:20.857Z,69.20
2022-09-12T20:38:53.388Z,69.30
2022-09-12T20:41:21.166Z,69.20
2022-09-12T20:43:52.876Z,69.30
2022-09-12T20:46:22.159Z,69.30
2022-09-12T20:48:50.627Z,70.30
2022-09-12T20:51:18.480Z,69.40
2022-09-12T20:53:45.910Z,69.60
2022-09-12T20:56:14.803Z,69.60
2022-09-12T20:58:44.662Z,69.70
2022-09-12T21:01:13.717Z,69.70
2022-09-12T21:03:42.600Z,69.70
2022-09-12T21:06:12.682Z,69.90
2022-09-12T21:08:40.520Z,70.00
2022-09-12T21:11:07.580Z,70.00
2022-09-12T21:13:35.240Z,70.10
2022-09-12T21:16:17.391Z,70.10
2022-09-12T21:18:44.990Z,70.10
2022-09-12T21:21:12.931Z,70.20
2022-09-12T21:23:40.941Z,70.20
2022-09-12T21:26:08.429Z,70.50
2022-09-12T21:28:35.345Z,70.50
2022-09-12T21:31:03.326Z,70.40
2022-09-12T21:33:32.414Z,70.60
2022-09-12T21:36:04.582Z,70.50
2022-09-12T21:38:32.195Z,70.60
2022-09-12T21:41:07.220Z,70.60
2022-09-12T21:43:35.219Z,70.70
2022-09-12T21:46:02.502Z,70.70
2022-09-12T21:48:30.635Z,70.70
2022-09-12T21:50:58.081Z,70.80
2022-09-12T21:53:25.276Z,70.90
2022-09-12T21:55:52.264Z,70.90
2022-09-12T21:58:19.591Z,71.20
2022-09-12T22:00:47.392Z,71.40
2022-09-12T22:03:15.480Z,71.40
2022-09-12T22:05:43.168Z,71.40
2022-09-12T22:08:11.325Z,71.50
2022-09-12T22:10:40.819Z,71.50
2022-09-12T22:13:08.141Z,71.60
2022-09-12T22:15:42.302Z,71.70
2022-09-12T22:18:09.261Z,71.70
2022-09-12T22:20:36.302Z,71.80
2022-09-12T22:23:24.825Z,71.90
2022-09-12T22:25:54.968Z,72.00
2022-09-12T22:28:25.123Z,72.00
2022-09-12T22:30:54.185Z,72.10
2022-09-12T22:33:21.477Z,72.10
2022-09-12T22:35:48.504Z,72.20
2022-09-12T22:38:15.680Z,72.30
2022-09-12T22:40:42.984Z,72.30
2022-09-12T22:43:12.553Z,72.40
2022-09-12T22:45:42.941Z,72.50
2022-09-12T22:48:10.100Z,72.50
2022-09-12T22:50:36.996Z,72.50
2022-09-12T22:53:04.129Z,72.50
2022-09-12T22:55:31.086Z,72.60
2022-09-12T22:57:58.199Z,72.70
2022-09-12T23:00:27.925Z,72.70
2022-09-12T23:02:55.425Z,72.90
2022-09-12T23:05:22.420Z,72.90
2022-09-12T23:07:51.856Z,73.00
2022-09-12T23:10:18.825Z,73.10
2022-09-12T23:12:45.917Z,73.00
2022-09-12T23:15:13.344Z,73.10
2022-09-12T23:17:40.470Z,73.00
2022-09-12T23:20:07.933Z,73.10
2022-09-12T23:22:36.973Z,73.30
2022-09-12T23:25:04.635Z,73.40
2022-09-12T23:27:31.708Z,73.40
2022-09-12T23:29:58.602Z,74.40
2022-09-12T23:32:26.612Z,73.50
2022-09-12T23:34:53.760Z,73.70
2022-09-12T23:37:21.767Z,73.70
2022-09-12T23:39:49.715Z,73.70
2022-09-12T23:42:17.334Z,73.70
2022-09-12T23:44:44.232Z,73.80
2022-09-12T23:47:11.380Z,73.80
2022-09-12T23:49:38.790Z,74.10
2022-09-12T23:52:05.843Z,74.00
2022-09-12T23:54:32.864Z,74.00
2022-09-12T23:57:00.049Z,74.00
2022-09-12T23:59:27.129Z,74.00
